Time;durP1;ratioP1;P1;durP2;ratioP2;P2;SDS_P1;SDS_P2;PMS_P1;PMS_P2;Temp;Humidity;BMP_temperature;BMP_pressure;BME280_temperature;BME280_humidity;BME280_pressure;Samples;Min_cycle;Max_cycle;Signal;HPM_P1;HPM_P2
2022/06/14 00:01:10;;;;;;;2.83;2.50;;;;;;;17.65;94.57;100543.47;4469273;32;20515;-67
2022/06/14 00:03:40;;;;;;;6.78;3.05;;;;;;;17.63;94.34;100537.34;4469136;32;20516;-67
2022/06/14 00:06:18;;;;;;;3.72;2.65;;;;;;;17.74;94.34;100544.91;4469498;32;20806;-67
2022/06/14 00:08:46;;;;;;;5.37;2.62;;;;;;;17.78;93.61;100537.69;4469108;32;20365;-67
2022/06/14 00:11:17;;;;;;;5.12;2.78;;;;;;;17.50;95.52;100537.84;4469066;32;20541;-67
2022/06/14 00:13:44;;;;;;;3.58;3.05;;;;;;;17.49;95.62;100536.09;4468972;32;20544;-67
2022/06/14 00:16:12;;;;;;;2.97;2.60;;;;;;;17.24;97.15;100533.50;4468884;32;20159;-67
2022/06/14 00:18:40;;;;;;;4.22;2.90;;;;;;;17.35;97.25;100539.28;4469058;32;20080;-67
2022/06/14 00:21:07;;;;;;;4.85;3.05;;;;;;;17.29;97.68;100528.87;4469052;32;20080;-66
2022/06/14 00:23:35;;;;;;;6.80;2.90;;;;;;;17.34;97.25;100533.09;4468982;32;20164;-67
2022/06/14 00:26:04;;;;;;;4.00;2.95;;;;;;;17.24;97.76;100529.03;4468968;32;20526;-67
2022/06/14 00:28:33;;;;;;;10.20;3.00;;;;;;;17.19;98.48;100541.66;4468825;32;20080;-66
2022/06/14 00:31:07;;;;;;;6.55;3.60;;;;;;;17.10;99.97;100540.22;4469026;32;20080;-66
2022/06/14 00:33:35;;;;;;;3.45;3.12;;;;;;;17.05;100.00;100552.81;4468781;32;20096;-66
2022/06/14 00:36:06;;;;;;;10.90;3.20;;;;;;;17.00;100.00;100554.78;4468550;32;20169;-66
2022/06/14 00:38:35;;;;;;;3.92;3.50;;;;;;;17.02;100.00;100560.91;4468684;32;20080;-66
2022/06/14 00:41:04;;;;;;;8.30;3.65;;;;;;;16.85;100.00;100566.81;4468739;32;20104;-67
2022/06/14 00:43:32;;;;;;;5.47;3.67;;;;;;;16.91;100.00;100563.06;4468645;32;20173;-67
2022/06/14 00:46:15;;;;;;;6.32;3.80;;;;;;;16.88;100.00;100560.50;4468663;32;20380;-66
2022/06/14 00:48:48;;;;;;;7.65;3.37;;;;;;;17.02;100.00;100568.87;4468605;32;20102;-67
2022/06/14 00:51:23;;;;;;;6.12;3.62;;;;;;;16.82;100.00;100558.97;4468606;32;20092;-67
2022/06/14 00:54:26;;;;;;;7.37;4.00;;;;;;;16.72;100.00;100562.81;4468427;32;20157;-66
2022/06/14 00:57:05;;;;;;;6.45;3.55;;;;;;;16.64;100.00;100573.72;4436098;32;20112;-66
2022/06/14 00:59:45;;;;;;;6.97;3.92;;;;;;;16.65;100.00;100579.91;4470786;32;20073;-66
2022/06/14 01:02:14;;;;;;;7.57;4.07;;;;;;;16.58;100.00;100573.94;4470736;32;20373;-66
2022/06/14 01:04:42;;;;;;;6.43;3.90;;;;;;;16.65;100.00;100575.47;4470659;32;20123;-66
2022/06/14 01:07:17;;;;;;;4.07;3.67;;;;;;;16.66;100.00;100574.53;4470655;32;20467;-66
2022/06/14 01:09:49;;;;;;;5.80;3.65;;;;;;;16.60;100.00;100587.16;4470696;32;20103;-66
2022/06/14 01:12:20;;;;;;;5.80;3.78;;;;;;;16.56;100.00;100583.75;4470681;32;20072;-66
2022/06/14 01:14:52;;;;;;;5.43;3.97;;;;;;;16.62;100.00;100588.00;4470604;32;20577;-67
2022/06/14 01:17:20;;;;;;;8.77;3.85;;;;;;;16.46;100.00;100592.94;4470907;32;20173;-66
2022/06/14 01:19:48;;;;;;;5.15;3.55;;;;;;;16.43;100.00;100606.34;4470755;32;20131;-66
2022/06/14 01:22:18;;;;;;;8.25;3.62;;;;;;;16.51;100.00;100604.31;4470747;32;20457;-66
2022/06/14 01:24:45;;;;;;;7.82;3.35;;;;;;;16.56;100.00;100605.03;4470627;32;20116;-66
2022/06/14 01:27:17;;;;;;;6.82;3.70;;;;;;;16.41;100.00;100598.41;4470774;32;20160;-66
2022/06/14 01:29:50;;;;;;;4.20;3.30;;;;;;;16.43;100.00;100599.25;4470798;32;20068;-66
2022/06/14 01:32:18;;;;;;;7.80;3.80;;;;;;;16.48;100.00;100593.78;4470669;32;20107;-66
2022/06/14 01:34:52;;;;;;;4.78;4.05;;;;;;;16.37;100.00;100590.59;4470495;32;20118;-66
2022/06/14 01:37:21;;;;;;;6.10;3.50;;;;;;;16.41;100.00;100594.91;4470379;32;20165;-66
2022/06/14 01:39:49;;;;;;;10.38;4.30;;;;;;;16.37;100.00;100611.88;4470485;32;20080;-66
2022/06/14 01:42:22;;;;;;;6.30;3.70;;;;;;;16.52;100.00;100610.50;4470487;32;20091;-67
2022/06/14 01:45:19;;;;;;;4.12;3.72;;;;;;;16.36;100.00;100618.09;4470416;32;20088;-67
2022/06/14 01:47:50;;;;;;;8.05;3.58;;;;;;;16.25;100.00;100624.66;4470457;32;20109;-66
2022/06/14 01:53:47;;;;;;;6.68;3.40;;;;;;;16.49;100.00;100622.09;4470491;32;20084;-66
2022/06/14 01:56:37;;;;;;;5.30;3.30;;;;;;;16.50;100.00;100615.84;4470395;32;20104;-66
2022/06/14 01:59:29;;;;;;;5.45;3.60;;;;;;;16.54;100.00;100625.50;4470346;32;20161;-67
2022/06/14 02:02:03;;;;;;;6.22;3.03;;;;;;;16.58;100.00;100623.59;4470360;32;20153;-66
2022/06/14 02:04:38;;;;;;;7.75;3.35;;;;;;;16.45;100.00;100612.50;4470523;32;20522;-66
2022/06/14 02:07:33;;;;;;;4.78;3.62;;;;;;;16.34;100.00;100628.78;4469835;32;20089;-66
2022/06/14 02:10:11;;;;;;;6.10;3.78;;;;;;;16.06;100.00;100623.47;4470320;32;20242;-67
2022/06/14 02:12:50;;;;;;;6.30;3.80;;;;;;;16.34;100.00;100628.78;4470288;32;20085;-67
2022/06/14 02:15:18;;;;;;;5.75;4.00;;;;;;;16.15;100.00;100631.16;4470151;32;20133;-66
2022/06/14 02:18:30;;;;;;;6.05;3.25;;;;;;;16.11;100.00;100620.66;4470131;32;20157;-67
2022/06/14 02:21:21;;;;;;;6.00;3.33;;;;;;;16.22;100.00;100632.72;4470199;32;20479;-67
2022/06/14 02:23:59;;;;;;;7.30;4.10;;;;;;;16.16;100.00;100638.22;4470238;32;20475;-66
2022/06/14 02:26:57;;;;;;;6.15;4.05;;;;;;;16.15;100.00;100630.31;4470248;32;20076;-67
2022/06/14 02:29:31;;;;;;;7.30;3.45;;;;;;;16.10;100.00;100634.88;4443964;32;20161;-66
2022/06/14 02:32:07;;;;;;;5.32;3.55;;;;;;;16.10;100.00;100638.41;4470188;32;20440;-66
2022/06/14 02:34:43;;;;;;;10.73;3.53;;;;;;;15.99;100.00;100637.84;4470100;32;20068;-66
2022/06/14 02:37:30;;;;;;;6.15;4.10;;;;;;;15.98;100.00;100642.31;4469767;32;20148;-66
2022/06/14 02:40:29;;;;;;;10.25;4.22;;;;;;;15.86;100.00;100642.66;4470038;32;20197;-66
2022/06/14 02:43:15;;;;;;;6.65;3.85;;;;;;;15.88;100.00;100639.97;4413223;32;20105;-66
2022/06/14 02:45:48;;;;;;;6.05;3.80;;;;;;;15.96;100.00;100644.13;4470128;32;20072;-67
2022/06/14 02:49:02;;;;;;;12.15;3.85;;;;;;;16.02;100.00;100635.09;4470076;32;20158;-66
2022/06/14 02:52:09;;;;;;;8.73;4.50;;;;;;;16.00;100.00;100647.56;4454431;32;20104;-66
2022/06/14 02:55:04;;;;;;;8.40;4.20;;;;;;;16.05;100.00;100637.69;4469654;32;20104;-66
2022/06/14 02:57:43;;;;;;;9.57;4.18;;;;;;;16.14;100.00;100641.81;4469839;32;20080;-66
2022/06/14 03:00:19;;;;;;;10.98;4.03;;;;;;;16.23;100.00;100649.53;4470240;32;20137;-66
2022/06/14 03:02:52;;;;;;;5.80;3.87;;;;;;;16.19;100.00;100640.78;4469880;32;20096;-66
2022/06/14 03:05:37;;;;;;;5.18;3.62;;;;;;;16.31;100.00;100642.19;4470222;32;20095;-67
2022/06/14 03:08:20;;;;;;;4.35;3.45;;;;;;;16.32;100.00;100654.53;4470109;32;20123;-66
2022/06/14 03:11:05;;;;;;;5.32;3.65;;;;;;;16.32;100.00;100669.62;4469905;32;20142;-67
2022/06/14 03:13:42;;;;;;;5.20;4.05;;;;;;;16.50;100.00;100671.72;4469935;32;20092;-67
2022/06/14 03:16:24;;;;;;;10.25;3.28;;;;;;;16.42;100.00;100658.66;4469941;32;20084;-67
2022/06/14 03:18:56;;;;;;;8.02;3.60;;;;;;;16.54;100.00;100675.13;4469727;32;20083;-66
2022/06/14 03:21:46;;;;;;;6.30;3.47;;;;;;;16.51;100.00;100684.13;4469990;32;20529;-66
2022/06/14 03:24:16;;;;;;;5.10;3.03;;;;;;;16.57;100.00;100667.97;4469796;32;20476;-67
2022/06/14 03:26:56;;;;;;;11.80;4.18;;;;;;;16.72;100.00;100678.09;4469992;32;20184;-66
2022/06/14 03:29:48;;;;;;;6.25;3.53;;;;;;;16.69;100.00;100680.84;4469763;32;20068;-67
2022/06/14 03:33:01;;;;;;;5.65;3.47;;;;;;;16.73;100.00;100671.84;4469750;32;20100;-67
2022/06/14 03:35:39;;;;;;;6.40;3.25;;;;;;;16.79;100.00;100680.59;4420306;32;20113;-66
2022/06/14 03:38:28;;;;;;;5.35;3.12;;;;;;;17.01;99.04;100673.63;4469649;32;20096;-66
2022/06/14 03:40:55;;;;;;;5.53;3.25;;;;;;;17.12;98.40;100671.47;4469701;32;20135;-66
2022/06/14 03:43:23;;;;;;;4.80;3.72;;;;;;;17.06;98.29;100677.00;4469694;32;20084;-67
2022/06/14 03:46:11;;;;;;;10.57;3.80;;;;;;;17.13;98.11;100677.66;4469649;32;20553;-67
2022/06/14 03:48:43;;;;;;;7.03;3.60;;;;;;;16.97;98.34;100672.00;4469541;32;20437;-67
2022/06/14 03:51:31;;;;;;;4.82;3.60;;;;;;;17.06;98.60;100677.00;4469487;32;20075;-67
2022/06/14 03:54:01;;;;;;;6.72;3.28;;;;;;;17.03;98.92;100685.13;4469531;32;20546;-67
2022/06/14 03:56:57;;;;;;;6.68;3.25;;;;;;;17.17;97.25;100681.94;4469518;32;20205;-67
2022/06/14 03:59:54;;;;;;;7.62;3.17;;;;;;;17.18;97.61;100684.59;4469551;32;20101;-67
2022/06/14 04:02:52;;;;;;;7.95;4.05;;;;;;;17.33;96.29;100682.31;4469566;32;20088;-67
2022/06/14 04:05:42;;;;;;;5.20;3.50;;;;;;;17.25;96.49;100697.69;4469504;32;20088;-67
2022/06/14 04:08:14;;;;;;;7.40;3.13;;;;;;;17.14;97.05;100690.06;4469517;32;20096;-67
2022/06/14 04:10:48;;;;;;;7.43;3.30;;;;;;;17.38;96.86;100699.00;4469538;32;20202;-67
2022/06/14 04:13:37;;;;;;;5.15;3.03;;;;;;;17.47;95.50;100697.81;4469417;32;20080;-67
2022/06/14 04:16:13;;;;;;;9.70;3.28;;;;;;;17.80;94.90;100699.28;4469533;32;20081;-67
2022/06/14 04:18:51;;;;;;;11.10;3.15;;;;;;;17.59;95.23;100700.88;4469274;32;20081;-67
2022/06/14 04:21:32;;;;;;;9.73;3.58;;;;;;;17.72;95.31;100696.00;4466506;32;20165;-67
2022/06/14 04:24:06;;;;;;;7.95;3.00;;;;;;;17.84;94.54;100703.56;4466830;32;76603;-67
2022/06/14 04:26:52;;;;;;;9.20;3.33;;;;;;;17.71;94.20;100696.94;4469165;32;20084;-67
2022/06/14 04:29:46;;;;;;;3.35;2.80;;;;;;;17.78;94.72;100698.47;4469041;32;20104;-67
2022/06/14 04:32:23;;;;;;;6.28;2.95;;;;;;;17.86;93.66;100711.53;4470597;32;20100;-67
2022/06/14 04:35:01;;;;;;;5.53;3.20;;;;;;;17.92;93.63;100714.84;4456462;32;20109;-67
2022/06/14 04:37:41;;;;;;;5.50;2.95;;;;;;;17.66;93.88;100718.41;4470951;32;20111;-67
2022/06/14 04:40:16;;;;;;;7.28;3.67;;;;;;;17.81;94.20;100714.38;4471068;32;20115;-67
2022/06/14 04:42:52;;;;;;;5.05;2.80;;;;;;;17.93;93.32;100726.38;4470909;32;20141;-67
2022/06/14 04:45:43;;;;;;;7.68;3.55;;;;;;;17.95;92.95;100728.97;4471027;32;20420;-67
2022/06/14 04:48:24;;;;;;;4.72;3.20;;;;;;;17.76;93.17;100731.44;4470868;32;20116;-67
2022/06/14 04:51:18;;;;;;;10.60;3.00;;;;;;;17.82;93.46;100736.56;4469186;31;20150;-67
2022/06/14 04:54:04;;;;;;;7.80;3.72;;;;;;;17.85;93.44;100731.13;4434874;32;20096;-67
2022/06/14 04:56:43;;;;;;;5.15;3.25;;;;;;;17.94;93.11;100738.75;4464254;32;20088;-67
2022/06/14 04:59:16;;;;;;;5.12;2.87;;;;;;;17.93;92.46;100747.69;4470895;32;20113;-67
2022/06/14 05:01:47;;;;;;;6.55;2.95;;;;;;;18.04;92.12;100742.84;4471069;32;20115;-67
2022/06/14 05:04:40;;;;;;;5.25;3.20;;;;;;;18.37;91.00;100753.16;4464204;32;20109;-67
2022/06/14 05:07:15;;;;;;;5.07;2.75;;;;;;;18.47;89.98;100743.88;4465533;32;20092;-67
2022/06/14 05:10:10;;;;;;;4.78;3.15;;;;;;;18.52;89.33;100747.25;4470881;32;20080;-67
2022/06/14 05:12:45;;;;;;;5.18;3.20;;;;;;;18.15;89.39;100761.09;4460585;32;20142;-67
2022/06/14 05:15:36;;;;;;;10.15;3.35;;;;;;;18.40;89.90;100751.22;4470624;32;20747;-67
2022/06/14 05:18:09;;;;;;;5.50;3.10;;;;;;;18.61;88.39;100756.69;4470338;32;20488;-67
2022/06/14 05:20:42;;;;;;;5.10;2.90;;;;;;;18.85;87.74;100770.91;4470291;32;20455;-67
2022/06/14 05:23:22;;;;;;;4.70;2.95;;;;;;;19.00;86.40;100762.25;4457398;32;20126;-68
2022/06/14 05:26:07;;;;;;;5.95;3.05;;;;;;;19.13;86.20;100775.13;4455079;32;20545;-67
2022/06/14 05:28:55;;;;;;;6.40;3.08;;;;;;;18.73;86.19;100771.38;4454934;32;20092;-67
2022/06/14 05:31:43;;;;;;;9.70;3.40;;;;;;;18.56;87.69;100778.22;4456391;32;20479;-67
2022/06/14 05:34:43;;;;;;;4.10;3.00;;;;;;;18.58;88.47;100776.34;4454713;32;20502;-67
2022/06/14 05:37:31;;;;;;;5.35;2.97;;;;;;;18.76;88.24;100779.25;4456109;32;20589;-67
2022/06/14 05:40:01;;;;;;;9.10;3.10;;;;;;;18.97;86.89;100783.72;4462059;32;20750;-67
2022/06/14 05:42:40;;;;;;;10.98;3.37;;;;;;;19.07;87.16;100777.09;4467444;32;20115;-67
2022/06/14 05:45:10;;;;;;;6.65;2.97;;;;;;;19.21;87.11;100784.53;4470322;32;20100;-67
2022/06/14 05:47:43;;;;;;;7.60;2.42;;;;;;;19.27;86.16;100781.62;4470798;32;20101;-67
2022/06/14 05:50:18;;;;;;;4.62;2.83;;;;;;;19.32;85.36;100774.28;4458574;32;20097;-67
2022/06/14 05:53:03;;;;;;;5.10;3.10;;;;;;;19.77;84.78;100778.63;4457888;32;20168;-67
2022/06/14 05:55:38;;;;;;;6.40;3.08;;;;;;;19.69;83.80;100782.59;4456688;32;20117;-67
2022/06/14 05:58:21;;;;;;;6.68;2.28;;;;;;;19.95;81.94;100778.75;4455705;32;20200;-67
2022/06/14 06:00:54;;;;;;;6.18;2.72;;;;;;;20.13;80.80;100780.59;4470262;32;20191;-67
2022/06/14 06:03:32;;;;;;;2.87;2.33;;;;;;;20.21;80.24;100780.25;4470349;32;20139;-67
2022/06/14 06:06:06;;;;;;;7.50;2.55;;;;;;;20.19;79.34;100787.50;4470189;32;20111;-67
2022/06/14 06:08:40;;;;;;;4.95;2.33;;;;;;;20.47;79.44;100790.63;4470162;32;20101;-67
2022/06/14 06:11:25;;;;;;;7.50;2.40;;;;;;;20.41;78.25;100784.69;4465407;32;20106;-67
2022/06/14 06:14:03;;;;;;;10.10;2.28;;;;;;;20.71;77.75;100791.34;4454588;32;20115;-67
2022/06/14 06:16:58;;;;;;;5.45;2.53;;;;;;;20.66;77.24;100792.47;4454685;32;20080;-67
2022/06/14 06:19:33;;;;;;;5.93;2.42;;;;;;;20.64;75.50;100799.72;4454776;32;20453;-67
2022/06/14 06:22:13;;;;;;;6.30;2.37;;;;;;;20.41;76.12;100806.97;4463289;32;20089;-67
2022/06/14 06:25:06;;;;;;;4.53;2.70;;;;;;;20.44;76.53;100808.66;4470237;32;20111;-67
2022/06/14 06:27:40;;;;;;;15.35;9.48;;;;;;;20.77;75.48;100801.72;4470006;32;20081;-67
2022/06/14 06:30:17;;;;;;;5.47;2.22;;;;;;;20.75;73.91;100809.00;4470896;32;20108;-67
2022/06/14 06:32:45;;;;;;;8.65;2.30;;;;;;;20.87;72.49;100804.84;4470725;32;20104;-67
2022/06/14 06:35:13;;;;;;;6.80;2.40;;;;;;;20.96;72.60;100807.09;4470584;32;20088;-67
2022/06/14 06:37:49;;;;;;;4.37;2.47;;;;;;;20.85;71.35;100806.75;4469864;32;20099;-67
2022/06/14 06:40:22;;;;;;;4.20;2.17;;;;;;;21.06;71.68;100815.56;4467534;32;20134;-67
2022/06/14 06:42:59;;;;;;;6.22;2.62;;;;;;;21.03;71.88;100813.03;4464062;32;20510;-67
2022/06/14 06:45:31;;;;;;;6.45;2.47;;;;;;;21.11;70.98;100813.50;4460986;31;20133;-67
2022/06/14 06:48:18;;;;;;;4.93;2.42;;;;;;;21.58;70.98;100806.75;4454211;32;20138;-67
2022/06/14 06:50:53;;;;;;;6.07;2.37;;;;;;;21.39;69.06;100813.06;4454211;32;20465;-67
2022/06/14 06:53:22;;;;;;;4.37;2.10;;;;;;;21.60;67.80;100810.25;4454076;32;20081;-67
2022/06/14 06:56:24;;;;;;;10.23;2.47;;;;;;;21.28;68.50;100820.75;4454330;32;20112;-67
2022/06/14 06:58:56;;;;;;;3.72;2.00;;;;;;;21.34;69.02;100816.91;4453771;32;20164;-67
2022/06/14 07:01:23;;;;;;;5.00;2.08;;;;;;;21.50;66.89;100815.19;4463312;32;20092;-67
2022/06/14 07:04:20;;;;;;;7.32;2.70;;;;;;;21.70;67.96;100816.87;4461587;32;20088;-67
2022/06/14 07:06:57;;;;;;;7.25;2.45;;;;;;;21.66;65.81;100812.59;4460866;32;20097;-68
2022/06/14 07:09:47;;;;;;;6.95;2.00;;;;;;;21.99;64.94;100828.78;4462731;32;20161;-67
2022/06/14 07:12:39;;;;;;;8.43;2.60;;;;;;;21.98;65.23;100826.16;4470690;32;20084;-67
2022/06/14 07:15:18;;;;;;;5.43;2.30;;;;;;;22.10;66.22;100821.03;4470691;32;20099;-67
2022/06/14 07:17:54;;;;;;;9.07;2.20;;;;;;;22.82;62.20;100827.88;4470381;32;20085;-67
2022/06/14 07:21:09;;;;;;;4.53;2.35;;;;;;;22.41;63.50;100824.78;4470565;32;20089;-67
2022/06/14 07:23:42;;;;;;;5.47;2.05;;;;;;;22.26;62.28;100829.19;4435643;32;20092;-67
2022/06/14 07:26:14;;;;;;;4.65;2.10;;;;;;;22.33;62.31;100827.91;4470407;32;20080;-68
2022/06/14 07:29:04;;;;;;;13.62;2.78;;;;;;;22.71;61.21;100824.91;4465921;32;20145;-67
2022/06/14 07:31:38;;;;;;;3.37;2.05;;;;;;;22.73;61.49;100824.84;4465702;32;20116;-67
2022/06/14 07:34:07;;;;;;;5.20;2.00;;;;;;;22.68;59.56;100830.47;4470525;32;20100;-67
2022/06/14 07:36:47;;;;;;;3.50;1.98;;;;;;;22.83;59.68;100834.13;4463670;32;20114;-67
2022/06/14 07:39:32;;;;;;;9.23;2.17;;;;;;;23.02;58.29;100821.41;4439822;32;20092;-67
2022/06/14 07:42:02;;;;;;;3.62;2.00;;;;;;;22.98;58.53;100816.31;4452198;32;20455;-67
2022/06/14 07:44:45;;;;;;;5.93;1.92;;;;;;;23.29;57.57;100826.19;4459073;32;20161;-68
2022/06/14 07:47:16;;;;;;;5.60;2.03;;;;;;;23.35;56.47;100828.50;4462780;32;20153;-67
2022/06/14 07:49:47;;;;;;;4.55;1.70;;;;;;;23.49;52.92;100825.84;4461991;32;20100;-67
2022/06/14 07:52:25;;;;;;;5.47;2.30;;;;;;;23.72;48.09;100829.06;4460017;32;20438;-68
2022/06/14 07:55:01;;;;;;;4.40;2.00;;;;;;;24.04;48.64;100824.44;4462186;32;20096;-68
2022/06/14 07:57:37;;;;;;;7.57;1.97;;;;;;;24.43;47.51;100823.81;4461170;32;20154;-68
2022/06/14 08:03:25;;;;;;;8.23;2.10;;;;;;;24.21;48.12;100826.09;4460352;32;20120;-68
2022/06/14 08:05:54;;;;;;;6.60;2.10;;;;;;;24.23;47.40;100834.94;4460032;32;20100;-68
2022/06/14 08:08:27;;;;;;;9.23;2.12;;;;;;;24.18;48.12;100827.13;4461528;32;20141;-68
2022/06/14 08:11:00;;;;;;;7.93;1.65;;;;;;;23.92;49.45;100831.41;4463423;32;20097;-67
2022/06/14 08:13:35;;;;;;;8.00;1.80;;;;;;;24.05;48.25;100836.91;4463693;32;20100;-68
2022/06/14 08:16:05;;;;;;;4.62;1.83;;;;;;;24.22;47.62;100828.69;4462661;32;20127;-68
2022/06/14 08:18:36;;;;;;;5.30;2.00;;;;;;;24.33;46.15;100825.31;4463656;32;20532;-68
2022/06/14 08:21:19;;;;;;;6.93;2.00;;;;;;;24.63;44.85;100822.56;4462267;32;20167;-68
2022/06/14 08:23:54;;;;;;;5.10;1.52;;;;;;;24.55;44.38;100824.88;4464849;32;20126;-68
2022/06/14 08:26:37;;;;;;;6.47;1.90;;;;;;;24.70;43.33;100829.31;4456319;32;20146;-68
2022/06/14 08:29:29;;;;;;;5.35;1.90;;;;;;;24.59;42.68;100814.75;4470753;32;20163;-68
2022/06/14 08:32:12;;;;;;;11.38;2.30;;;;;;;24.97;42.96;100833.87;4459494;32;20092;-67
2022/06/14 08:34:54;;;;;;;7.28;1.60;;;;;;;24.46;40.24;100825.47;4455052;32;20096;-67
2022/06/14 08:37:32;;;;;;;6.20;1.52;;;;;;;24.92;39.94;100823.37;4460353;32;20105;-67
2022/06/14 08:40:25;;;;;;;5.47;1.33;;;;;;;24.61;37.88;100824.47;4460954;32;20100;-68
2022/06/14 08:42:58;;;;;;;5.72;1.80;;;;;;;24.42;39.91;100834.72;4430306;32;20104;-68
2022/06/14 08:46:08;;;;;;;7.45;1.77;;;;;;;24.31;39.23;100828.12;4458944;32;20084;-68
2022/06/14 08:48:41;;;;;;;9.93;1.75;;;;;;;25.00;38.90;100814.78;4462070;32;20135;-68
2022/06/14 08:51:09;;;;;;;4.03;1.48;;;;;;;25.18;38.60;100827.09;4458506;32;20107;-68
2022/06/14 08:54:01;;;;;;;5.53;1.50;;;;;;;25.48;37.59;100828.75;4454558;32;20096;-68
2022/06/14 08:56:55;;;;;;;6.40;2.00;;;;;;;25.86;38.18;100827.97;4454926;32;20119;-68
2022/06/14 08:59:28;;;;;;;6.50;1.58;;;;;;;24.99;36.07;100824.72;4454957;32;20100;-68
2022/06/14 09:02:26;;;;;;;7.45;1.73;;;;;;;25.06;36.38;100819.78;4455076;32;20081;-68
2022/06/14 09:05:12;;;;;;;1.30;1.20;;;;;;;24.58;37.88;100834.59;4455418;32;20104;-68
2022/06/14 09:08:23;;;;;;;2.70;1.45;;;;;;;24.93;37.05;100827.81;4462497;32;20096;-68
2022/06/14 09:11:18;;;;;;;12.02;1.40;;;;;;;25.34;37.48;100829.66;4465173;32;20602;-68
2022/06/14 09:14:12;;;;;;;4.93;1.48;;;;;;;25.78;37.07;100835.72;4444187;32;20172;-68
2022/06/14 09:17:03;;;;;;;6.45;1.30;;;;;;;25.67;36.39;100820.25;4454232;32;20149;-68
2022/06/14 09:20:05;;;;;;;3.10;1.40;;;;;;;25.47;38.06;100830.56;4454518;32;20115;-68
2022/06/14 09:23:18;;;;;;;4.68;1.37;;;;;;;25.94;36.85;100821.09;4459643;32;20126;-68
2022/06/14 09:25:51;;;;;;;2.28;1.60;;;;;;;26.15;38.13;100815.19;4462547;32;20141;-68
2022/06/14 09:28:43;;;;;;;4.87;1.40;;;;;;;26.10;36.65;100814.62;4460653;32;20142;-68
2022/06/14 09:31:38;;;;;;;7.00;1.70;;;;;;;26.21;36.20;100821.00;4470091;32;20142;-68
2022/06/14 09:34:36;;;;;;;3.72;1.55;;;;;;;26.58;35.95;100804.91;4463666;32;20537;-68
2022/06/14 09:37:16;;;;;;;5.78;1.42;;;;;;;26.45;36.73;100818.38;4460128;31;20165;-68
2022/06/14 09:40:02;;;;;;;;;;;;;;;26.15;37.24;100821.44;4461138;32;20119;-67
2022/06/14 09:43:09;;;;;;;2.75;1.48;;;;;;;26.10;37.67;100818.19;4456406;32;20003;-67
2022/06/14 09:45:51;;;;;;;3.92;1.40;;;;;;;25.77;34.83;100829.47;4454416;32;20088;-67
2022/06/14 09:48:37;;;;;;;8.27;2.15;;;;;;;26.02;35.05;100812.47;4460219;32;20120;-68
2022/06/14 09:51:32;;;;;;;2.75;1.60;;;;;;;26.13;37.10;100809.00;4461767;32;20165;-67
2022/06/14 09:54:22;;;;;;;5.18;1.42;;;;;;;26.38;35.91;100811.69;4458902;32;20108;-68
2022/06/14 09:57:13;;;;;;;6.20;1.75;;;;;;;26.17;33.99;100811.38;4463251;32;20100;-68
2022/06/14 10:00:22;;;;;;;3.25;1.20;;;;;;;26.20;34.77;100813.00;4466194;32;20084;-68
2022/06/14 10:03:27;;;;;;;6.28;1.52;;;;;;;26.54;35.59;100818.72;4465048;32;20089;-67
2022/06/14 10:05:54;;;;;;;5.00;1.42;;;;;;;25.57;34.79;100824.53;4417500;32;20131;-67
2022/06/14 10:08:28;;;;;;;4.85;1.62;;;;;;;26.30;34.29;100813.22;4459318;32;20433;-68
2022/06/14 10:11:11;;;;;;;1.95;1.35;;;;;;;26.34;34.87;100806.63;4455440;32;20084;-68
2022/06/14 10:13:52;;;;;;;5.03;1.37;;;;;;;26.01;33.60;100801.75;4455431;32;20161;-68
2022/06/14 10:16:22;;;;;;;4.60;1.35;;;;;;;26.02;32.91;100807.06;4453905;32;20535;-68
2022/06/14 10:19:17;;;;;;;6.18;1.70;;;;;;;26.88;32.88;100809.91;4459402;32;20157;-68
2022/06/14 10:21:51;;;;;;;3.10;1.70;;;;;;;27.14;32.12;100810.72;4470881;32;20075;-68
2022/06/14 10:24:36;;;;;;;4.78;1.67;;;;;;;27.06;32.30;100806.81;4470887;32;20804;-68
2022/06/14 10:30:19;;;;;;;4.10;1.50;;;;;;;27.31;33.30;100805.88;4469731;32;20108;-68
2022/06/14 10:33:17;;;;;;;6.75;1.58;;;;;;;27.41;33.75;100804.22;4469296;32;20080;-68
2022/06/14 10:35:55;;;;;;;2.60;1.48;;;;;;;26.37;34.75;100795.63;4462044;32;20145;-68
2022/06/14 10:38:34;;;;;;;3.53;1.52;;;;;;;26.30;35.23;100795.19;4454991;32;20096;-68
2022/06/14 10:41:24;;;;;;;2.20;1.75;;;;;;;27.12;34.31;100791.03;4455278;32;20101;-68
2022/06/14 10:44:02;;;;;;;4.43;1.80;;;;;;;27.74;32.82;100794.47;4455141;32;20089;-69
2022/06/14 10:46:39;;;;;;;4.12;1.42;;;;;;;28.55;32.34;100788.09;4455084;32;20111;-68
2022/06/14 10:49:40;;;;;;;6.37;1.90;;;;;;;28.52;31.57;100783.81;4455024;32;20096;-69
2022/06/14 10:52:32;;;;;;;7.12;1.80;;;;;;;26.86;33.37;100792.94;4454769;32;20199;-68
2022/06/14 10:55:37;;;;;;;8.82;1.80;;;;;;;26.82;33.99;100788.75;4455335;32;20080;-69
2022/06/14 10:58:26;;;;;;;1.90;1.45;;;;;;;27.63;33.90;100789.87;4405532;32;20097;-69
2022/06/14 11:01:08;;;;;;;12.60;1.73;;;;;;;28.46;32.43;100788.88;4404965;32;20098;-69
2022/06/14 11:03:54;;;;;;;3.45;1.50;;;;;;;28.50;32.38;100769.50;4441497;32;20085;-69
2022/06/14 11:06:47;;;;;;;4.60;1.52;;;;;;;28.96;31.53;100773.88;4459942;32;20104;-68
2022/06/14 11:10:06;;;;;;;5.40;1.70;;;;;;;29.08;31.86;100763.00;4429624;32;20149;-69
2022/06/14 11:12:53;;;;;;;5.65;1.45;;;;;;;27.36;33.64;100782.06;4408978;32;20435;-68
2022/06/14 11:15:39;;;;;;;3.45;1.75;;;;;;;27.02;34.38;100781.84;4454511;32;20131;-69
2022/06/14 11:18:44;;;;;;;2.12;1.45;;;;;;;25.64;36.42;100779.97;4458871;32;20128;-69
2022/06/14 11:21:22;;;;;;;2.53;1.70;;;;;;;25.60;36.71;100776.63;4462858;32;20130;-68
2022/06/14 11:24:18;;;;;;;7.75;2.45;;;;;;;25.77;36.94;100780.00;4461501;32;20123;-68
2022/06/14 11:27:07;;;;;;;8.93;2.05;;;;;;;26.22;36.83;100776.81;4458651;32;20096;-69
2022/06/14 11:29:59;;;;;;;4.53;1.80;;;;;;;27.16;35.10;100781.69;4463153;32;20104;-69
2022/06/14 11:32:54;;;;;;;2.83;1.83;;;;;;;27.87;33.10;100784.47;4457763;32;20119;-68
2022/06/14 11:35:36;;;;;;;3.90;1.48;;;;;;;28.18;32.63;100779.34;4460753;32;20188;-68
2022/06/14 11:38:25;;;;;;;3.65;1.60;;;;;;;28.59;32.52;100785.03;4461712;32;20164;-68
2022/06/14 11:40:58;;;;;;;5.75;1.55;;;;;;;27.87;34.25;100790.72;4460981;32;20163;-69
2022/06/14 11:43:32;;;;;;;4.32;1.83;;;;;;;26.89;35.52;100783.72;4468458;32;20141;-69
2022/06/14 11:46:07;;;;;;;4.10;1.62;;;;;;;26.41;35.11;100784.47;4469066;32;20161;-68
2022/06/14 11:48:43;;;;;;;4.90;1.77;;;;;;;26.62;33.75;100778.53;4465850;32;20127;-68
2022/06/14 11:51:28;;;;;;;5.43;2.03;;;;;;;27.62;32.22;100786.31;4469303;32;20405;-69
2022/06/14 11:54:19;;;;;;;3.28;1.70;;;;;;;27.13;34.00;100797.31;4469247;32;20088;-67
2022/06/14 11:57:03;;;;;;;4.55;1.75;;;;;;;27.25;33.84;100790.13;4453483;32;20809;-67
2022/06/14 11:59:50;;;;;;;6.28;2.00;;;;;;;29.24;32.08;100785.19;4453951;32;20127;-68
2022/06/14 12:02:17;;;;;;;15.00;2.10;;;;;;;29.79;30.36;100769.66;4454301;32;20088;-67
2022/06/14 12:05:24;;;;;;;5.43;1.60;;;;;;;31.75;29.07;100775.53;4454576;32;20130;-67
2022/06/14 12:08:35;;;;;;;14.68;1.98;;;;;;;32.95;27.95;100773.00;4456808;32;20373;-67
2022/06/14 12:11:26;;;;;;;4.47;1.08;;;;;;;31.60;28.79;100784.16;4460505;32;20092;-68
2022/06/14 12:14:02;;;;;;;5.10;1.42;;;;;;;31.28;29.50;100780.84;4467841;32;20093;-67
2022/06/14 12:16:39;;;;;;;5.25;1.77;;;;;;;32.16;29.59;100773.44;4470032;32;20080;-67
2022/06/14 12:19:22;;;;;;;3.20;1.48;;;;;;;31.69;29.61;100773.38;4462544;32;20085;-68
2022/06/14 12:22:26;;;;;;;7.45;2.12;;;;;;;31.67;28.93;100771.66;4460190;32;20778;-68
2022/06/14 12:27:41;;;;;;;8.90;3.10;;;;;;;28.90;30.93;100771.66;4469535;32;20428;-68
2022/06/14 12:30:11;;;;;;;5.95;2.20;;;;;;;28.48;32.48;100778.75;4469752;32;20177;-68
2022/06/14 12:32:51;;;;;;;4.57;1.55;;;;;;;28.18;32.60;100763.94;4469395;32;20170;-68
2022/06/14 12:35:23;;;;;;;2.37;1.30;;;;;;;28.36;31.83;100758.91;4469409;32;20141;-68
2022/06/14 12:38:09;;;;;;;5.82;1.45;;;;;;;30.00;30.88;100751.47;4465414;32;20084;-68
2022/06/14 12:40:45;;;;;;;3.45;1.35;;;;;;;31.38;29.28;100749.91;4453879;32;20085;-69